Time;durP1;ratioP1;P1;durP2;ratioP2;P2;SDS_P1;SDS_P2;PMS_P1;PMS_P2;Temp;Humidity;BMP_temperature;BMP_pressure;BME280_temperature;BME280_humidity;BME280_pressure;Samples;Min_cycle;Max_cycle;Signal;HPM_P1;HPM_P2
2023/11/29 00:00:46;;;;;;;6.68;1.40;;;4.20;99.90;;;;;;5006411;28;20537;-92
2023/11/29 00:03:11;;;;;;;3.13;1.10;;;4.30;99.90;;;;;;5014957;28;20033;-94
2023/11/29 00:05:38;;;;;;;3.00;1.67;;;4.20;99.90;;;;;;5009022;28;20030;-93
2023/11/29 00:08:05;;;;;;;1.80;1.50;;;4.20;99.90;;;;;;5015850;28;20033;-94
2023/11/29 00:10:31;;;;;;;4.72;2.15;;;4.20;99.90;;;;;;5024843;28;20026;-93
2023/11/29 00:12:57;;;;;;;2.70;1.75;;;4.20;99.90;;;;;;5036114;28;20038;-93
2023/11/29 00:15:23;;;;;;;5.65;1.63;;;4.20;99.90;;;;;;5029382;28;20052;-94
2023/11/29 00:17:49;;;;;;;1.50;1.30;;;4.20;99.90;;;;;;5035247;28;20013;-95
2023/11/29 00:20:15;;;;;;;4.07;1.20;;;4.30;99.90;;;;;;5022258;28;20081;-92
2023/11/29 00:22:40;;;;;;;4.07;1.80;;;4.30;99.90;;;;;;5018762;28;20027;-93
2023/11/29 00:25:07;;;;;;;2.67;0.85;;;4.40;99.90;;;;;;5033229;28;20034;-93
2023/11/29 00:27:33;;;;;;;3.25;1.23;;;4.40;99.90;;;;;;5003344;28;20089;-93
2023/11/29 00:29:58;;;;;;;1.40;1.00;;;4.40;99.90;;;;;;4984099;28;20026;-93
2023/11/29 00:32:24;;;;;;;5.30;1.08;;;4.40;99.90;;;;;;5010788;28;20041;-91
2023/11/29 00:34:50;;;;;;;5.40;0.90;;;4.40;99.90;;;;;;5013949;28;20422;-93
2023/11/29 00:37:15;;;;;;;6.18;1.10;;;4.40;99.90;;;;;;5014587;28;20080;-92
2023/11/29 00:39:41;;;;;;;1.35;0.63;;;4.40;99.90;;;;;;5014571;28;20076;-93
2023/11/29 00:42:07;;;;;;;3.22;1.25;;;4.40;99.90;;;;;;5014292;28;20055;-93
2023/11/29 00:44:32;;;;;;;2.65;0.77;;;4.40;99.90;;;;;;5014309;28;20049;-93
2023/11/29 00:46:58;;;;;;;2.25;0.80;;;4.40;99.90;;;;;;5013715;28;20028;-92
2023/11/29 00:49:23;;;;;;;1.55;1.05;;;4.40;99.90;;;;;;4997581;28;20474;-93
2023/11/29 00:51:49;;;;;;;2.45;0.90;;;4.40;99.90;;;;;;5016347;28;20029;-93
2023/11/29 00:54:15;;;;;;;1.45;0.80;;;4.50;99.90;;;;;;5004451;28;20038;-91
2023/11/29 00:56:41;;;;;;;1.02;0.75;;;4.50;99.90;;;;;;5019645;28;20044;-94
2023/11/29 00:59:06;;;;;;;3.33;0.82;;;4.50;99.90;;;;;;5034401;28;20078;-93
2023/11/29 01:01:33;;;;;;;1.55;0.90;;;4.50;99.90;;;;;;5013630;28;20474;-93
2023/11/29 01:04:03;;;;;;;3.33;0.90;;;4.50;99.90;;;;;;5008785;28;20632;-92
2023/11/29 01:06:30;;;;;;;2.30;1.25;;;4.50;99.90;;;;;;5025560;28;20025;-92
2023/11/29 01:08:56;;;;;;;2.80;0.77;;;4.50;99.90;;;;;;5004386;28;20041;-93
2023/11/29 01:11:23;;;;;;;3.83;0.68;;;4.60;99.90;;;;;;4995510;28;20027;-93
2023/11/29 01:13:49;;;;;;;1.15;0.75;;;4.60;99.90;;;;;;5000784;28;20050;-92
2023/11/29 01:16:15;;;;;;;2.50;0.88;;;4.60;99.90;;;;;;5009390;28;20033;-91
2023/11/29 01:18:42;;;;;;;2.42;1.10;;;4.70;99.90;;;;;;5016696;28;20038;-94
2023/11/29 01:21:12;;;;;;;3.42;0.75;;;4.60;99.90;;;;;;5017507;28;20537;-94
2023/11/29 01:23:37;;;;;;;4.22;1.02;;;4.60;99.90;;;;;;5008649;28;20041;-91
2023/11/29 01:26:03;;;;;;;4.68;0.85;;;4.60;99.90;;;;;;4994632;28;20415;-96
2023/11/29 01:28:29;;;;;;;1.30;0.82;;;4.60;99.90;;;;;;5009337;28;20509;-92
2023/11/29 01:30:54;;;;;;;3.08;1.23;;;4.60;99.90;;;;;;5013406;28;20049;-93
2023/11/29 01:33:20;;;;;;;2.38;1.10;;;4.60;99.90;;;;;;5011062;28;20088;-91
2023/11/29 01:35:45;;;;;;;1.83;0.88;;;4.60;99.90;;;;;;5014129;28;20167;-92
2023/11/29 01:38:11;;;;;;;4.60;1.52;;;4.60;99.90;;;;;;5006535;28;20041;-93
2023/11/29 01:40:36;;;;;;;3.90;0.90;;;4.60;99.90;;;;;;4994711;28;20023;-92
2023/11/29 01:43:02;;;;;;;3.17;0.80;;;4.60;99.90;;;;;;4994767;28;20509;-92
2023/11/29 01:45:27;;;;;;;2.78;0.90;;;4.60;99.90;;;;;;5000085;28;20526;-93
2023/11/29 01:47:53;;;;;;;2.38;0.90;;;5.30;99.90;;;;;;5005925;28;20105;-93
2023/11/29 01:50:23;;;;;;;3.65;1.00;;;4.60;99.90;;;;;;4998865;28;20023;-92
2023/11/29 01:52:48;;;;;;;9.43;2.03;;;4.70;99.90;;;;;;4997577;28;20493;-92
2023/11/29 01:55:18;;;;;;;3.33;0.90;;;4.70;99.90;;;;;;5013046;28;20435;-92
2023/11/29 01:57:43;;;;;;;2.50;0.85;;;4.80;99.90;;;;;;5021288;28;20026;-92
2023/11/29 02:00:11;;;;;;;1.17;0.90;;;4.70;99.90;;;;;;5031035;28;20056;-93
2023/11/29 02:02:37;;;;;;;1.77;0.80;;;4.70;99.90;;;;;;5028325;28;20026;-93
2023/11/29 02:05:04;;;;;;;5.43;0.77;;;4.70;99.90;;;;;;5015388;28;20034;-92
2023/11/29 02:07:29;;;;;;;1.65;0.80;;;4.70;99.90;;;;;;5025376;28;20036;-92
2023/11/29 02:09:55;;;;;;;5.50;1.10;;;4.70;99.90;;;;;;5011865;28;20034;-93
2023/11/29 02:12:21;;;;;;;3.42;0.80;;;4.70;99.90;;;;;;5012304;28;20046;-93
2023/11/29 02:14:47;;;;;;;4.95;1.27;;;4.80;99.90;;;;;;5014074;28;20108;-92
2023/11/29 02:17:12;;;;;;;2.95;1.27;;;4.80;99.90;;;;;;5015541;28;20029;-94
2023/11/29 02:19:38;;;;;;;2.42;1.02;;;4.70;99.90;;;;;;4997563;28;20455;-94
2023/11/29 02:22:04;;;;;;;2.35;1.08;;;4.80;99.90;;;;;;5006186;28;20049;-93
2023/11/29 02:24:40;;;;;;;3.65;0.88;;;4.70;99.90;;;;;;5006275;28;20029;-93
2023/11/29 02:27:05;;;;;;;2.15;1.10;;;4.80;99.90;;;;;;5018550;28;20542;-92
2023/11/29 02:29:31;;;;;;;4.25;1.10;;;4.70;99.90;;;;;;5008985;28;20121;-92
2023/11/29 02:31:56;;;;;;;5.22;1.10;;;4.70;99.90;;;;;;5012897;28;20080;-92
2023/11/29 02:34:23;;;;;;;6.00;1.35;;;4.70;99.90;;;;;;5014204;28;20029;-93
2023/11/29 02:36:49;;;;;;;4.68;1.20;;;4.70;99.90;;;;;;5017956;28;20440;-92
2023/11/29 02:39:15;;;;;;;4.97;1.13;;;4.60;99.90;;;;;;5015270;28;20065;-94
2023/11/29 02:41:40;;;;;;;4.03;1.65;;;4.70;99.90;;;;;;5016621;28;20085;-92
2023/11/29 02:44:06;;;;;;;6.47;1.45;;;4.60;99.90;;;;;;5014334;28;20061;-91
2023/11/29 02:46:31;;;;;;;3.90;1.25;;;4.70;99.90;;;;;;5026319;28;20025;-91
2023/11/29 02:48:57;;;;;;;7.00;1.63;;;4.80;99.90;;;;;;5034363;28;20030;-91
2023/11/29 02:51:23;;;;;;;7.38;1.58;;;4.80;99.90;;;;;;5021970;28;20058;-91
2023/11/29 02:53:49;;;;;;;8.88;1.38;;;4.90;99.90;;;;;;5004278;28;20490;-90
2023/11/29 02:56:14;;;;;;;4.70;1.15;;;4.90;99.90;;;;;;5027848;28;20040;-90
2023/11/29 02:58:40;;;;;;;6.28;0.80;;;4.80;99.90;;;;;;5030008;28;20026;-91
2023/11/29 03:01:06;;;;;;;4.95;0.60;;;4.60;99.90;;;;;;5022660;28;20463;-91
2023/11/29 03:03:31;;;;;;;2.38;0.80;;;4.50;99.90;;;;;;5016567;28;20026;-91
2023/11/29 03:05:57;;;;;;;5.53;0.70;;;4.40;99.90;;;;;;5016692;28;20530;-92
2023/11/29 03:08:23;;;;;;;5.78;1.00;;;4.40;99.90;;;;;;5010597;28;20034;-91
2023/11/29 03:10:48;;;;;;;1.05;0.68;;;4.30;99.90;;;;;;5015830;28;20481;-90
2023/11/29 03:13:14;;;;;;;3.50;1.20;;;4.30;99.90;;;;;;4998887;28;20117;-92
2023/11/29 03:15:39;;;;;;;8.10;1.00;;;4.40;99.90;;;;;;5011294;28;20102;-92
2023/11/29 03:18:05;;;;;;;4.68;0.75;;;4.30;99.90;;;;;;5000281;28;20065;-90
2023/11/29 03:20:30;;;;;;;4.38;0.82;;;4.40;99.90;;;;;;5006687;28;20520;-91
2023/11/29 03:22:56;;;;;;;10.68;1.60;;;4.40;99.90;;;;;;5018498;28;20026;-89
2023/11/29 03:25:21;;;;;;;8.50;1.30;;;4.40;99.90;;;;;;5030490;28;20086;-90
2023/11/29 03:27:47;;;;;;;4.95;1.95;;;4.50;99.90;;;;;;5021022;28;20371;-90
2023/11/29 03:30:13;;;;;;;4.88;1.67;;;4.40;99.90;;;;;;5018144;28;20034;-91
2023/11/29 03:32:38;;;;;;;7.22;1.20;;;4.40;99.90;;;;;;5015195;28;20487;-91
2023/11/29 03:35:04;;;;;;;3.00;1.00;;;4.40;99.90;;;;;;5021042;28;20032;-93
2023/11/29 03:37:30;;;;;;;6.40;1.02;;;4.40;99.90;;;;;;5017975;28;20029;-93
2023/11/29 03:39:55;;;;;;;4.72;1.60;;;4.40;99.90;;;;;;5026111;28;20025;-93
2023/11/29 03:42:21;;;;;;;5.32;1.42;;;4.30;99.90;;;;;;5030054;28;20025;-92
2023/11/29 03:44:47;;;;;;;3.63;1.00;;;4.30;99.90;;;;;;5025790;28;20030;-92
2023/11/29 03:47:12;;;;;;;7.30;1.10;;;4.40;99.90;;;;;;5015444;28;20031;-92
2023/11/29 03:49:38;;;;;;;5.80;1.08;;;4.40;99.90;;;;;;4996852;28;20026;-92
2023/11/29 03:52:04;;;;;;;4.97;1.33;;;4.40;99.90;;;;;;5011465;28;20116;-93
2023/11/29 03:54:29;;;;;;;2.60;0.90;;;4.50;99.90;;;;;;4997180;28;20031;-92
2023/11/29 03:56:55;;;;;;;11.38;2.60;;;4.50;99.90;;;;;;5001143;28;20025;-92
2023/11/29 03:59:21;;;;;;;2.40;0.85;;;4.50;99.90;;;;;;5016327;28;20554;-91
2023/11/29 04:01:46;;;;;;;5.75;1.02;;;4.50;99.90;;;;;;5015318;28;20038;-93
2023/11/29 04:04:12;;;;;;;8.02;1.33;;;4.50;99.90;;;;;;5016396;28;20371;-94
2023/11/29 04:06:37;;;;;;;0.90;0.30;;;4.50;99.90;;;;;;5017183;28;20564;-93
2023/11/29 04:09:03;;;;;;;1.83;0.50;;;4.40;99.90;;;;;;5019842;28;20026;-91
2023/11/29 04:11:29;;;;;;;1.60;0.50;;;4.20;99.90;;;;;;5029867;28;20033;-91
2023/11/29 04:13:54;;;;;;;2.65;0.52;;;4.10;99.90;;;;;;5014169;28;20043;-91
2023/11/29 04:16:27;;;;;;;1.55;0.40;;;4.00;99.90;;;;;;5026974;28;20057;-92
2023/11/29 04:18:53;;;;;;;1.48;0.43;;;3.90;99.90;;;;;;5011036;28;20030;-93
2023/11/29 04:21:30;;;;;;;2.40;0.40;;;3.80;99.90;;;;;;5018801;28;20466;-92
2023/11/29 04:23:56;;;;;;;2.22;0.47;;;3.70;99.90;;;;;;5003937;28;20394;-92
2023/11/29 04:26:31;;;;;;;1.98;0.30;;;3.70;99.90;;;;;;5004393;28;20025;-93
2023/11/29 04:28:58;;;;;;;0.40;0.40;;;3.70;99.90;;;;;;5018234;28;20021;-91
2023/11/29 04:31:24;;;;;;;2.58;0.47;;;3.70;99.90;;;;;;5002532;28;20026;-92
2023/11/29 04:33:50;;;;;;;4.65;0.40;;;3.70;99.90;;;;;;4995490;28;20035;-91
2023/11/29 04:36:15;;;;;;;2.40;0.40;;;3.70;99.90;;;;;;5013292;28;20432;-91
2023/11/29 04:38:41;;;;;;;2.80;0.50;;;3.80;99.90;;;;;;4994139;28;20027;-91
2023/11/29 04:41:08;;;;;;;1.02;0.25;;;3.80;99.90;;;;;;4998828;28;20386;-92
2023/11/29 04:43:34;;;;;;;0.82;0.50;;;3.90;99.90;;;;;;5014259;28;20022;-93
2023/11/29 04:45:59;;;;;;;2.35;0.40;;;3.90;99.90;;;;;;5012323;28;20041;-91
2023/11/29 04:48:25;;;;;;;2.35;0.77;;;3.90;99.90;;;;;;5014077;28;20026;-93
2023/11/29 04:50:51;;;;;;;1.60;0.60;;;3.90;99.90;;;;;;5009562;28;20028;-92
2023/11/29 04:53:16;;;;;;;2.08;0.57;;;4.00;99.90;;;;;;4999643;28;20474;-90
2023/11/29 04:55:42;;;;;;;0.88;0.40;;;3.90;99.90;;;;;;5013820;28;20545;-89
2023/11/29 04:58:08;;;;;;;2.22;0.50;;;3.90;99.90;;;;;;5004556;28;20041;-90
2023/11/29 05:00:33;;;;;;;1.60;0.47;;;3.90;99.90;;;;;;5008925;28;20033;-90
2023/11/29 05:02:59;;;;;;;2.15;0.70;;;4.00;99.90;;;;;;5013244;28;20034;-93
2023/11/29 05:05:25;;;;;;;6.07;0.73;;;3.90;99.90;;;;;;5012891;28;20025;-91
2023/11/29 05:07:53;;;;;;;4.18;0.70;;;4.00;99.90;;;;;;5010774;28;20486;-91
2023/11/29 05:10:19;;;;;;;1.15;0.50;;;4.00;99.90;;;;;;4999736;28;20053;-92
2023/11/29 05:12:45;;;;;;;3.58;0.30;;;4.30;99.90;;;;;;4993090;28;20069;-90
2023/11/29 05:15:10;;;;;;;10.65;1.77;;;4.00;99.90;;;;;;5000186;28;20068;-91
2023/11/29 05:17:36;;;;;;;3.55;1.20;;;4.00;99.90;;;;;;4995074;28;20479;-90
2023/11/29 05:20:02;;;;;;;2.75;1.27;;;4.00;99.90;;;;;;4995535;28;20534;-89
2023/11/29 05:22:28;;;;;;;3.55;0.75;;;4.40;99.90;;;;;;5005545;28;20038;-95
2023/11/29 05:24:53;;;;;;;6.18;0.80;;;4.00;99.90;;;;;;5018476;28;20026;-92
2023/11/29 05:27:19;;;;;;;3.88;1.00;;;4.10;99.90;;;;;;5023182;28;20085;-93
2023/11/29 05:29:44;;;;;;;5.45;0.70;;;4.10;99.90;;;;;;5008458;28;20080;-93
2023/11/29 05:32:10;;;;;;;1.58;0.40;;;4.70;99.90;;;;;;5011297;28;20455;-94
2023/11/29 05:34:36;;;;;;;3.97;0.60;;;4.20;99.90;;;;;;4994804;28;20085;-93
2023/11/29 05:37:01;;;;;;;3.50;0.68;;;4.20;99.90;;;;;;4995966;28;20391;-93
2023/11/29 05:39:27;;;;;;;3.30;0.60;;;4.20;99.90;;;;;;5010932;28;20034;-93
2023/11/29 05:41:54;;;;;;;3.78;0.50;;;4.30;99.90;;;;;;5015305;28;20200;-94
2023/11/29 05:44:20;;;;;;;4.32;0.68;;;4.30;99.90;;;;;;5010430;28;20045;-94
2023/11/29 05:46:46;;;;;;;7.05;0.50;;;4.30;99.90;;;;;;4997004;28;20499;-93
2023/11/29 05:49:11;;;;;;;1.48;0.63;;;4.20;99.90;;;;;;5005228;28;20018;-94
2023/11/29 05:51:37;;;;;;;4.20;0.47;;;4.30;99.90;;;;;;5017714;28;20034;-95
2023/11/29 05:54:03;;;;;;;1.65;0.57;;;5.10;99.90;;;;;;5015219;28;20053;-94
2023/11/29 05:56:29;;;;;;;2.53;0.50;;;4.30;99.90;;;;;;5012933;28;20030;-92
2023/11/29 05:58:54;;;;;;;4.05;0.85;;;4.30;99.90;;;;;;5017774;28;20045;-94
2023/11/29 06:01:20;;;;;;;3.75;0.75;;;4.40;99.90;;;;;;5019660;28;20049;-92
2023/11/29 06:03:47;;;;;;;5.70;0.60;;;4.40;99.90;;;;;;5015036;28;20375;-92
2023/11/29 06:06:13;;;;;;;1.98;0.40;;;4.40;99.90;;;;;;5019187;28;20059;-92
2023/11/29 06:08:40;;;;;;;5.40;0.68;;;4.40;99.90;;;;;;5009104;28;20101;-96
2023/11/29 06:11:08;;;;;;;5.43;1.08;;;4.40;99.90;;;;;;5019251;28;20321;-93
2023/11/29 06:13:33;;;;;;;3.83;0.70;;;4.40;99.90;;;;;;5020927;28;20049;-93
2023/11/29 06:16:00;;;;;;;7.03;1.00;;;4.40;99.90;;;;;;5021096;28;20117;-93
2023/11/29 06:18:28;;;;;;;4.55;0.80;;;4.40;99.90;;;;;;5017466;28;20037;-96
2023/11/29 06:20:56;;;;;;;4.38;1.30;;;4.40;99.90;;;;;;5019619;28;20040;-94
2023/11/29 06:23:22;;;;;;;13.10;1.10;;;4.40;99.90;;;;;;5007516;28;20109;-95
2023/11/29 06:25:47;;;;;;;6.38;1.00;;;4.40;99.90;;;;;;5019468;28;20061;-93
2023/11/29 06:28:13;;;;;;;7.00;1.05;;;4.50;99.90;;;;;;5020824;28;20075;-93
2023/11/29 06:30:41;;;;;;;4.70;1.20;;;4.40;99.90;;;;;;5018340;28;20018;-93
2023/11/29 06:33:07;;;;;;;6.88;0.63;;;4.40;99.90;;;;;;5016191;28;20037;-89
2023/11/29 06:35:34;;;;;;;5.30;1.08;;;4.40;99.90;;;;;;5026971;28;20040;-93
2023/11/29 06:37:59;;;;;;;4.95;0.88;;;4.40;99.90;;;;;;5015225;28;20042;-91
2023/11/29 06:40:25;;;;;;;6.80;0.90;;;4.30;99.90;;;;;;5013245;28;20037;-92
2023/11/29 06:42:50;;;;;;;5.57;0.82;;;4.40;99.90;;;;;;5029879;28;20044;-92
2023/11/29 06:45:19;;;;;;;7.68;1.27;;;4.40;99.90;;;;;;5035902;28;20034;-92
2023/11/29 06:47:48;;;;;;;2.75;0.73;;;4.30;99.90;;;;;;5031289;28;20021;-93
2023/11/29 06:50:14;;;;;;;2.78;0.60;;;4.30;99.90;;;;;;5022655;28;20057;-93
2023/11/29 06:52:43;;;;;;;5.80;1.35;;;4.40;99.90;;;;;;5007919;28;20033;-93
2023/11/29 06:55:12;;;;;;;1.63;0.80;;;4.50;99.90;;;;;;5020073;28;20030;-92
2023/11/29 06:57:38;;;;;;;5.45;1.30;;;4.60;99.90;;;;;;5032549;28;20010;-91
2023/11/29 07:00:10;;;;;;;6.82;0.98;;;4.50;99.90;;;;;;5026715;28;20030;-93
2023/11/29 07:02:39;;;;;;;4.75;0.82;;;4.60;99.90;;;;;;5022271;28;20029;-93
2023/11/29 07:05:06;;;;;;;3.70;0.80;;;4.60;99.90;;;;;;5011636;28;20026;-92
2023/11/29 07:07:32;;;;;;;4.13;0.50;;;4.60;99.90;;;;;;5017498;28;20061;-93
2023/11/29 07:09:58;;;;;;;2.28;0.95;;;4.50;99.90;;;;;;5013860;28;20045;-92
2023/11/29 07:12:23;;;;;;;2.97;0.60;;;4.40;99.90;;;;;;5015044;28;20030;-91
2023/11/29 07:14:50;;;;;;;3.08;0.93;;;4.40;99.90;;;;;;5007688;28;20052;-92
2023/11/29 07:17:16;;;;;;;2.80;0.50;;;4.30;99.90;;;;;;5012558;28;20030;-91
2023/11/29 07:19:42;;;;;;;3.70;0.75;;;4.30;99.90;;;;;;5015638;28;20149;-93
2023/11/29 07:22:08;;;;;;;4.38;0.75;;;4.20;99.90;;;;;;5013302;28;20049;-93
2023/11/29 07:24:34;;;;;;;1.27;0.65;;;4.20;99.90;;;;;;5007074;28;20470;-93
2023/11/29 07:27:00;;;;;;;4.05;0.88;;;4.60;99.90;;;;;;5016569;28;20052;-91
2023/11/29 07:29:27;;;;;;;9.73;1.10;;;4.10;99.90;;;;;;5029843;28;20049;-93
2023/11/29 07:31:54;;;;;;;4.18;0.90;;;4.00;99.90;;;;;;5022187;28;20034;-93
2023/11/29 07:34:20;;;;;;;2.35;1.27;;;4.10;99.90;;;;;;5034844;28;20034;-93
2023/11/29 07:36:51;;;;;;;4.88;1.30;;;4.10;99.90;;;;;;5011594;28;20056;-94
2023/11/29 07:39:20;;;;;;;12.20;2.35;;;4.10;99.90;;;;;;5023835;28;20033;-94
2023/11/29 07:41:49;;;;;;;5.38;1.08;;;4.10;99.90;;;;;;5015801;28;20057;-92
2023/11/29 07:44:15;;;;;;;7.75;0.98;;;4.10;99.90;;;;;;5019712;28;20022;-92
2023/11/29 07:46:41;;;;;;;6.97;1.65;;;4.20;99.90;;;;;;5018082;28;20489;-91
2023/11/29 07:49:07;;;;;;;4.10;1.45;;;4.20;99.90;;;;;;5015144;28;20041;-91
2023/11/29 07:51:45;;;;;;;5.03;1.30;;;4.20;99.90;;;;;;5009801;28;20073;-95
2023/11/29 07:54:12;;;;;;;3.72;1.02;;;4.20;99.90;;;;;;5026346;28;20048;-95
2023/11/29 07:56:38;;;;;;;7.35;1.10;;;4.20;99.90;;;;;;5019556;28;20029;-92
2023/11/29 07:59:03;;;;;;;8.55;2.03;;;4.10;99.90;;;;;;5010989;28;20030;-92
2023/11/29 08:01:29;;;;;;;4.38;1.55;;;4.10;99.90;;;;;;5014678;28;20025;-93
2023/11/29 08:03:55;;;;;;;3.42;1.20;;;4.00;99.90;;;;;;5015543;28;20024;-91
2023/11/29 08:06:21;;;;;;;5.28;1.08;;;4.00;99.90;;;;;;5017363;28;20026;-93
2023/11/29 08:08:47;;;;;;;5.28;1.30;;;4.00;99.90;;;;;;5018239;28;20085;-92
2023/11/29 08:11:12;;;;;;;3.38;0.85;;;4.00;99.90;;;;;;4999960;28;20034;-92
2023/11/29 08:13:38;;;;;;;5.97;1.70;;;4.00;99.90;;;;;;4996834;28;20053;-90
2023/11/29 08:16:05;;;;;;;3.58;1.45;;;4.00;99.90;;;;;;5002068;28;20417;-91
2023/11/29 08:18:31;;;;;;;2.50;1.30;;;3.90;99.90;;;;;;5016636;28;20113;-91
2023/11/29 08:20:58;;;;;;;4.53;1.63;;;3.90;99.90;;;;;;5015937;28;20050;-89
2023/11/29 08:23:24;;;;;;;1.50;0.90;;;3.90;99.90;;;;;;5014645;28;20022;-93
2023/11/29 08:25:49;;;;;;;4.93;1.00;;;4.00;99.90;;;;;;5023398;28;20040;-94
2023/11/29 08:28:15;;;;;;;7.63;1.60;;;3.90;99.90;;;;;;5030039;28;20026;-93
2023/11/29 08:30:41;;;;;;;2.17;1.00;;;3.90;99.90;;;;;;5015084;28;20030;-88
2023/11/29 08:33:07;;;;;;;4.47;1.27;;;3.90;99.90;;;;;;5013239;28;20033;-86
2023/11/29 08:35:33;;;;;;;10.73;1.75;;;4.00;99.90;;;;;;5026661;28;20541;-88
2023/11/29 08:37:58;;;;;;;7.68;1.35;;;3.90;99.90;;;;;;5032087;28;20060;-93
2023/11/29 08:40:24;;;;;;;5.15;1.70;;;3.90;99.90;;;;;;5017694;28;20473;-92
2023/11/29 08:42:49;;;;;;;8.27;1.45;;;4.00;99.90;;;;;;5008575;28;20034;-93
2023/11/29 08:45:15;;;;;;;4.75;1.35;;;4.00;99.90;;;;;;5006865;28;20034;-92
2023/11/29 08:47:41;;;;;;;3.30;1.40;;;4.00;99.90;;;;;;5015366;28;20079;-91
2023/11/29 08:50:07;;;;;;;9.88;1.75;;;4.10;99.90;;;;;;5022506;28;20458;-93
2023/11/29 08:52:32;;;;;;;7.10;1.45;;;4.10;99.90;;;;;;5014220;28;20046;-92
2023/11/29 08:54:58;;;;;;;4.80;1.35;;;4.10;99.90;;;;;;5017843;28;20110;-93
2023/11/29 08:57:24;;;;;;;8.65;1.58;;;4.10;99.90;;;;;;5027821;28;20026;-95
2023/11/29 08:59:50;;;;;;;5.30;1.98;;;4.20;99.90;;;;;;5031898;28;20025;-93
2023/11/29 09:02:21;;;;;;;12.38;1.63;;;4.20;99.90;;;;;;5025400;28;20089;-92
2023/11/29 09:04:47;;;;;;;11.15;2.63;;;4.20;99.90;;;;;;5010794;28;20088;-92
2023/11/29 09:07:12;;;;;;;4.25;1.27;;;4.20;99.90;;;;;;5011433;28;20053;-91
2023/11/29 09:09:40;;;;;;;5.28;1.70;;;4.30;99.90;;;;;;5000489;28;20097;-88
2023/11/29 09:12:06;;;;;;;5.18;2.20;;;4.30;99.90;;;;;;5003828;28;20097;-87
2023/11/29 09:14:31;;;;;;;10.13;1.98;;;4.40;99.90;;;;;;5001751;28;20474;-91
2023/11/29 09:16:57;;;;;;;5.03;1.88;;;4.40;99.90;;;;;;5011149;28;20482;-91
2023/11/29 09:19:23;;;;;;;9.23;1.88;;;4.30;99.90;;;;;;5014872;28;20053;-93
2023/11/29 09:21:48;;;;;;;3.13;1.60;;;4.30;99.90;;;;;;5015181;28;20470;-90
2023/11/29 09:24:14;;;;;;;5.50;2.00;;;4.30;99.90;;;;;;5009117;28;20114;-90
2023/11/29 09:26:40;;;;;;;7.85;1.83;;;4.30;99.90;;;;;;5004682;28;20034;-86
2023/11/29 09:29:06;;;;;;;4.28;1.65;;;4.30;99.90;;;;;;5009187;28;20040;-90
2023/11/29 09:31:31;;;;;;;4.07;1.70;;;4.30;99.90;;;;;;5013257;28;20022;-83
2023/11/29 09:33:57;;;;;;;8.02;1.77;;;4.40;99.90;;;;;;5017447;28;20160;-85
2023/11/29 09:36:23;;;;;;;9.57;2.15;;;4.40;99.90;;;;;;5013339;28;20030;-91
2023/11/29 09:38:49;;;;;;;12.35;2.45;;;4.40;99.90;;;;;;5012214;28;20026;-92
2023/11/29 09:41:16;;;;;;;7.05;2.13;;;4.40;99.90;;;;;;5009301;28;20034;-84
2023/11/29 09:43:43;;;;;;;8.82;2.28;;;4.40;99.90;;;;;;5001268;28;20479;-88
2023/11/29 09:46:09;;;;;;;7.45;2.33;;;4.40;99.90;;;;;;5007045;28;20159;-88
2023/11/29 09:48:35;;;;;;;10.45;1.73;;;4.50;99.90;;;;;;5036008;28;20022;-86
2023/11/29 09:51:01;;;;;;;6.95;1.98;;;4.80;99.90;;;;;;5009673;28;20046;-88
2023/11/29 09:53:27;;;;;;;7.93;1.95;;;4.50;99.90;;;;;;5009313;28;20078;-89
2023/11/29 09:55:55;;;;;;;4.07;2.25;;;4.50;99.90;;;;;;4996850;28;20030;-89
2023/11/29 09:58:22;;;;;;;5.93;2.42;;;4.50;99.90;;;;;;5013283;28;20099;-87
2023/11/29 10:00:47;;;;;;;4.35;1.65;;;4.60;99.90;;;;;;5011203;28;20077;-88
2023/11/29 10:03:14;;;;;;;9.25;1.90;;;4.60;99.90;;;;;;5020684;28;20034;-90
2023/11/29 10:05:46;;;;;;;6.35;2.25;;;4.60;99.90;;;;;;5008800;28;20018;-89
2023/11/29 10:08:19;;;;;;;4.10;1.70;;;4.60;99.90;;;;;;5029188;28;20038;-87
2023/11/29 10:10:45;;;;;;;2.30;1.30;;;4.60;99.90;;;;;;5018183;28;20101;-87
2023/11/29 10:13:12;;;;;;;4.22;1.90;;;4.60;99.90;;;;;;5010450;28;20046;-87
2023/11/29 10:15:37;;;;;;;2.70;1.50;;;4.60;99.90;;;;;;4998108;28;20486;-87
2023/11/29 10:18:03;;;;;;;5.45;1.60;;;4.60;99.90;;;;;;5016673;28;20041;-89
2023/11/29 10:20:29;;;;;;;4.95;1.55;;;4.60;99.90;;;;;;5001760;28;20113;-87
2023/11/29 10:22:55;;;;;;;13.10;1.92;;;4.60;99.90;;;;;;5023749;28;20038;-88
2023/11/29 10:25:22;;;;;;;5.50;1.70;;;4.60;99.90;;;;;;4995454;28;20538;-88
2023/11/29 10:27:48;;;;;;;3.05;1.20;;;4.60;99.90;;;;;;5000126;28;20038;-90
2023/11/29 10:30:15;;;;;;;7.10;1.40;;;4.70;99.90;;;;;;5004171;28;20045;-89
2023/11/29 10:32:42;;;;;;;5.45;1.58;;;4.70;99.90;;;;;;5019112;28;20045;-88
2023/11/29 10:35:13;;;;;;;5.93;2.13;;;4.70;99.90;;;;;;5000071;28;20529;-90
2023/11/29 10:37:58;;;;;;;;;;;4.70;99.90;;;;;;5040247;28;20029;-87
2023/11/29 10:40:24;;;;;;;11.88;2.17;;;4.80;99.90;;;;;;5000751;28;19906;-87
2023/11/29 10:42:53;;;;;;;5.60;1.88;;;4.80;99.90;;;;;;5019227;28;20024;-87
2023/11/29 10:45:20;;;;;;;7.25;1.40;;;4.80;99.90;;;;;;5016829;28;20149;-87
2023/11/29 10:48:02;;;;;;;8.57;1.80;;;4.80;99.90;;;;;;5014613;28;20048;-89
2023/11/29 10:50:30;;;;;;;6.10;2.00;;;4.80;99.90;;;;;;4998681;28;20037;-88
2023/11/29 10:52:55;;;;;;;10.98;1.73;;;4.80;99.90;;;;;;5029419;28;20073;-87
2023/11/29 10:55:22;;;;;;;5.88;1.83;;;4.70;99.90;;;;;;4997663;28;20053;-87
2023/11/29 10:58:06;;;;;;;3.28;1.23;;;4.60;99.90;;;;;;5012563;28;20528;-87
2023/11/29 11:00:32;;;;;;;5.70;1.50;;;4.60;99.90;;;;;;5015837;28;20026;-89
2023/11/29 11:02:58;;;;;;;1.88;0.75;;;4.60;99.90;;;;;;5031740;28;20034;-88
2023/11/29 11:05:24;;;;;;;2.72;0.82;;;4.50;99.90;;;;;;5027728;28;20048;-88
2023/11/29 11:07:52;;;;;;;0.82;0.50;;;4.40;99.90;;;;;;5016188;28;20087;-87
2023/11/29 11:10:25;;;;;;;3.58;1.20;;;4.40;99.90;;;;;;4995835;28;20037;-88
2023/11/29 11:12:52;;;;;;;5.00;1.33;;;4.40;99.90;;;;;;5006977;28;20037;-90
2023/11/29 11:15:28;;;;;;;3.35;1.15;;;4.40;99.90;;;;;;5034197;28;20114;-86
2023/11/29 11:18:13;;;;;;;5.65;2.33;;;4.50;99.90;;;;;;5019132;28;20054;-87
2023/11/29 11:21:02;;;;;;;4.50;1.27;;;4.40;99.90;;;;;;5014531;28;20095;-90
2023/11/29 11:23:28;;;;;;;4.32;0.73;;;4.40;99.90;;;;;;5003332;28;20030;-90
2023/11/29 11:25:56;;;;;;;1.70;0.70;;;4.40;99.90;;;;;;5013963;28;20018;-92
2023/11/29 11:28:37;;;;;;;1.90;0.70;;;4.40;99.90;;;;;;5012463;28;20474;-86
2023/11/29 11:31:08;;;;;;;;;;;4.40;99.90;;;;;;5020217;28;20506;-93
2023/11/29 11:33:53;;;;;;;3.20;1.00;;;4.40;99.90;;;;;;5020971;28;19917;-92
2023/11/29 11:36:23;;;;;;;2.55;1.40;;;4.40;99.90;;;;;;5018360;28;20025;-93
2023/11/29 11:38:50;;;;;;;1.87;1.00;;;4.50;99.90;;;;;;5000717;28;20117;-93
2023/11/29 11:41:16;;;;;;;4.43;1.27;;;4.50;99.90;;;;;;5008172;28;20383;-94
2023/11/29 11:43:42;;;;;;;1.70;0.93;;;4.50;99.90;;;;;;5031500;28;20032;-93
2023/11/29 11:46:10;;;;;;;3.85;0.80;;;4.50;99.90;;;;;;5041335;28;20081;-95
2023/11/29 11:48:37;;;;;;;3.28;0.88;;;4.50;99.90;;;;;;5018619;28;20096;-93
2023/11/29 11:51:02;;;;;;;1.95;0.82;;;4.60;99.90;;;;;;5025137;28;20030;-94
2023/11/29 11:53:42;;;;;;;4.57;1.23;;;4.60;99.90;;;;;;5016655;28;20033;-93
2023/11/29 11:56:21;;;;;;;3.25;0.98;;;4.70;99.90;;;;;;5006495;28;20046;-86
2023/11/29 11:58:47;;;;;;;1.52;1.05;;;4.80;99.90;;;;;;5003979;28;20032;-90
2023/11/29 12:01:13;;;;;;;1.75;1.20;;;4.80;99.90;;;;;;5014490;28;20100;-91
2023/11/29 12:03:39;;;;;;;6.10;1.65;;;4.80;99.90;;;;;;5019735;28;20022;-91
2023/11/29 12:06:06;;;;;;;3.65;1.60;;;4.90;99.90;;;;;;5018003;28;20030;-91
2023/11/29 12:11:00;;;;;;;2.45;1.25;;;4.90;99.90;;;;;;5007354;28;20799;-91
2023/11/29 12:13:36;;;;;;;2.90;1.40;;;4.90;99.90;;;;;;5007269;28;20030;-93
2023/11/29 12:18:39;;;;;;;4.68;1.40;;;5.00;99.90;;;;;;5065112;22;20042;-92
2023/11/29 12:21:05;;;;;;;1.98;1.08;;;5.80;99.90;;;;;;5023943;28;20022;-92
2023/11/29 12:23:31;;;;;;;4.22;1.45;;;5.00;99.90;;;;;;5018117;28;20097;-91
2023/11/29 12:25:56;;;;;;;3.42;1.50;;;4.90;99.90;;;;;;5016928;28;20474;-92
2023/11/29 12:28:28;;;;;;;4.50;1.58;;;4.90;99.90;;;;;;5012033;28;20541;-93
2023/11/29 12:31:02;;;;;;;5.65;1.83;;;4.90;99.90;;;;;;4997680;28;20054;-94
2023/11/29 12:33:27;;;;;;;4.05;1.35;;;4.90;99.90;;;;;;5012412;28;20041;-90
2023/11/29 12:35:53;;;;;;;3.47;1.40;;;4.90;99.90;;;;;;5016747;28;20088;-94
2023/11/29 12:38:19;;;;;;;4.22;1.30;;;4.70;99.90;;;;;;5001979;28;20034;-91
2023/11/29 12:40:44;;;;;;;2.55;1.20;;;4.90;99.90;;;;;;5028883;28;20409;-91
2023/11/29 12:43:10;;;;;;;4.10;1.70;;;4.80;99.90;;;;;;5013846;28;20030;-90
2023/11/29 12:45:35;;;;;;;8.38;2.08;;;4.90;99.90;;;;;;4999158;28;20378;-91
2023/11/29 12:48:02;;;;;;;2.08;1.30;;;4.80;99.90;;;;;;5015188;28;20098;-92
2023/11/29 12:50:32;;;;;;;4.22;1.35;;;4.80;99.90;;;;;;5015418;28;20025;-91
2023/11/29 12:52:57;;;;;;;2.90;1.95;;;4.80;99.90;;;;;;5017701;28;20133;-92
2023/11/29 12:55:24;;;;;;;7.10;3.00;;;4.90;99.90;;;;;;5041644;28;20022;-90
2023/11/29 12:57:50;;;;;;;4.05;2.63;;;4.90;99.90;;;;;;5024711;28;20030;-93
2023/11/29 13:00:16;;;;;;;4.88;3.33;;;4.90;99.90;;;;;;5044144;28;20490;-92